createdAt,value
2023-05-17T00:01:00.501Z,100900.84
2023-05-17T00:03:27.544Z,100896.44
2023-05-17T00:05:54.679Z,100900.86
2023-05-17T00:08:21.939Z,100901.42
2023-05-17T00:10:49.093Z,100903.03
2023-05-17T00:13:16.071Z,100908.12
2023-05-17T00:15:45.747Z,100909.77
2023-05-17T00:18:14.513Z,100905.91
2023-05-17T00:20:41.898Z,100907.72
2023-05-17T00:23:08.871Z,100908.62
2023-05-17T00:25:35.888Z,100903.94
2023-05-17T00:28:02.760Z,100907.13
2023-05-17T00:30:29.754Z,100909.52
2023-05-17T00:32:56.802Z,100907.29
2023-05-17T00:35:24.235Z,100914.34
2023-05-17T00:37:52.432Z,100914.04
2023-05-17T00:40:19.530Z,100916.67
2023-05-17T00:42:46.631Z,100914.65
2023-05-17T00:45:13.894Z,100915.64
2023-05-17T00:47:41.370Z,100913.79
2023-05-17T00:50:09.327Z,100915.23
2023-05-17T00:52:36.750Z,100912.36
2023-05-17T00:55:03.912Z,100914.45
2023-05-17T00:57:32.236Z,100911.70
2023-05-17T01:00:01.829Z,100908.34
2023-05-17T01:02:28.984Z,100908.78
2023-05-17T01:04:56.041Z,100904.02
2023-05-17T01:07:22.984Z,100905.60
2023-05-17T01:09:50.538Z,100905.33
2023-05-17T01:12:36.341Z,100907.59
2023-05-17T01:15:26.226Z,100902.88
2023-05-17T01:17:56.763Z,100903.92
2023-05-17T01:20:41.640Z,100902.98
2023-05-17T01:23:31.690Z,100900.69
2023-05-17T01:26:22.024Z,100901.92
2023-05-17T01:28:54.588Z,100901.98
2023-05-17T01:31:23.616Z,100904.25
2023-05-17T01:33:50.963Z,100896.07
2023-05-17T01:36:18.007Z,100894.73
2023-05-17T01:38:45.065Z,100889.91
2023-05-17T01:41:41.157Z,100889.69
2023-05-17T01:44:27.191Z,100889.05
2023-05-17T01:47:06.509Z,100887.94
2023-05-17T01:49:38.818Z,100888.14
2023-05-17T01:52:17.240Z,100888.48
2023-05-17T01:54:51.166Z,100881.99
2023-05-17T01:57:21.100Z,100881.95
2023-05-17T01:59:50.045Z,100887.80
2023-05-17T02:02:16.998Z,100894.66
2023-05-17T02:04:44.290Z,100895.07
2023-05-17T02:07:11.315Z,100891.13
2023-05-17T02:09:38.295Z,100891.29
2023-05-17T02:12:05.622Z,100885.71
2023-05-17T02:14:34.482Z,100891.82
2023-05-17T02:17:01.772Z,100897.03
2023-05-17T02:19:28.954Z,100898.00
2023-05-17T02:21:56.538Z,100904.91
2023-05-17T02:24:23.679Z,100901.02
2023-05-17T02:26:50.889Z,100896.77
2023-05-17T02:29:17.980Z,100893.33
2023-05-17T02:31:46.292Z,100905.23
2023-05-17T02:34:13.408Z,100909.34
2023-05-17T02:36:41.479Z,100908.80
2023-05-17T02:39:08.529Z,100911.85
2023-05-17T02:41:35.777Z,100908.88
2023-05-17T02:44:02.824Z,100908.10
2023-05-17T02:46:29.974Z,100907.34
2023-05-17T02:48:57.186Z,100901.61
2023-05-17T02:51:24.519Z,100901.70
2023-05-17T02:53:51.864Z,100901.27
2023-05-17T02:56:19.238Z,100900.10
2023-05-17T02:58:46.300Z,100903.15
2023-05-17T03:01:13.382Z,100899.13
2023-05-17T03:03:40.957Z,100902.36
2023-05-17T03:06:08.219Z,100910.14
2023-05-17T03:08:35.657Z,100907.05
2023-05-17T03:11:04.317Z,100911.15
2023-05-17T03:13:31.901Z,100909.94
2023-05-17T03:15:59.709Z,100911.27
2023-05-17T03:18:27.906Z,100901.73
2023-05-17T03:20:55.423Z,100905.35
2023-05-17T03:23:22.425Z,100908.65
2023-05-17T03:25:58.178Z,100908.22
2023-05-17T03:28:26.544Z,100912.88
2023-05-17T03:30:53.865Z,100920.89
2023-05-17T03:33:21.863Z,100922.43
2023-05-17T03:35:48.844Z,100919.23
2023-05-17T03:38:16.029Z,100920.92
2023-05-17T03:40:43.060Z,100919.80
2023-05-17T03:43:10.056Z,100918.50
2023-05-17T03:45:37.286Z,100910.65
2023-05-17T03:48:04.961Z,100910.85
2023-05-17T03:50:32.873Z,100907.45
2023-05-17T03:53:00.376Z,100910.83
2023-05-17T03:55:27.564Z,100920.19
2023-05-17T03:57:54.933Z,100921.30
2023-05-17T04:00:22.536Z,100925.67
2023-05-17T04:02:52.484Z,100926.52
2023-05-17T04:05:20.300Z,100928.70
2023-05-17T04:07:47.804Z,100925.96
2023-05-17T04:10:14.990Z,100921.48
2023-05-17T04:12:42.188Z,100921.32
2023-05-17T04:15:09.821Z,100927.80
2023-05-17T04:17:38.767Z,100930.46
2023-05-17T04:20:09.111Z,100930.05
2023-05-17T04:22:36.191Z,100936.58
2023-05-17T04:25:03.380Z,100940.55
2023-05-17T04:27:30.781Z,100940.55
2023-05-17T04:29:59.556Z,100938.70
2023-05-17T04:32:28.283Z,100937.38
2023-05-17T04:34:56.624Z,100938.14
2023-05-17T04:37:24.554Z,100931.14
2023-05-17T04:39:53.804Z,100929.80
2023-05-17T04:42:21.863Z,100935.75
2023-05-17T04:44:53.114Z,100941.82
2023-05-17T04:47:20.362Z,100943.60
2023-05-17T04:49:47.710Z,100945.07
2023-05-17T04:52:14.865Z,100954.86
2023-05-17T04:54:42.289Z,100955.56
2023-05-17T04:57:09.437Z,100957.86
2023-05-17T04:59:58.432Z,100967.48
2023-05-17T05:02:25.928Z,100968.98
2023-05-17T05:04:53.594Z,100969.92
2023-05-17T05:07:23.203Z,100964.88
2023-05-17T05:09:50.508Z,100965.09
2023-05-17T05:12:19.099Z,100972.11
2023-05-17T05:14:47.490Z,100981.52
2023-05-17T05:17:14.619Z,100978.82
2023-05-17T05:19:42.160Z,100979.66
2023-05-17T05:22:09.544Z,100985.67
2023-05-17T05:24:37.852Z,100984.36
2023-05-17T05:27:06.966Z,100977.11
2023-05-17T05:29:35.095Z,100983.20
2023-05-17T05:32:03.044Z,100988.15
2023-05-17T05:34:32.046Z,100987.98
2023-05-17T05:37:00.063Z,100987.29
2023-05-17T05:39:28.286Z,100990.00
2023-05-17T05:41:55.597Z,100994.73
2023-05-17T05:44:25.237Z,100995.70
2023-05-17T05:46:53.733Z,100996.14
2023-05-17T05:49:21.263Z,101000.66
2023-05-17T05:51:49.159Z,101000.61
2023-05-17T05:54:17.433Z,100998.89
2023-05-17T05:56:45.301Z,100999.95
2023-05-17T05:59:13.373Z,101005.52
2023-05-17T06:01:41.669Z,101010.68
2023-05-17T06:04:08.901Z,101015.23
2023-05-17T06:06:36.283Z,101015.92
2023-05-17T06:09:04.304Z,101022.28
2023-05-17T06:11:32.554Z,101025.45
2023-05-17T06:13:59.709Z,101031.61
2023-05-17T06:16:26.702Z,101033.52
2023-05-17T06:18:53.839Z,101035.76
2023-05-17T06:21:22.268Z,101043.09
2023-05-17T06:23:49.382Z,101042.52
2023-05-17T06:26:16.449Z,101045.73
2023-05-17T06:28:43.538Z,101049.14
2023-05-17T06:31:10.924Z,101055.20
2023-05-17T06:33:37.983Z,101049.83
2023-05-17T06:36:06.064Z,101052.34
2023-05-17T06:38:34.071Z,101057.48
2023-05-17T06:41:01.262Z,101059.55
2023-05-17T06:43:28.409Z,101064.27
2023-05-17T06:45:55.463Z,101064.46
2023-05-17T06:48:22.745Z,101060.84
2023-05-17T06:50:50.075Z,101059.70
2023-05-17T06:53:17.425Z,101062.95
2023-05-17T06:55:44.590Z,101063.11
2023-05-17T06:58:11.744Z,101066.98
2023-05-17T07:00:39.011Z,101075.86
2023-05-17T07:03:06.100Z,101073.63
2023-05-17T07:05:33.428Z,101075.33
2023-05-17T07:08:01.045Z,101077.45
2023-05-17T07:10:28.182Z,101081.91
2023-05-17T07:12:55.286Z,101085.05
2023-05-17T07:15:22.480Z,101092.01
2023-05-17T07:17:49.548Z,101094.14
2023-05-17T07:20:16.931Z,101098.59
2023-05-17T07:22:44.292Z,101100.66
2023-05-17T07:25:11.586Z,101107.13
2023-05-17T07:27:38.745Z,101102.13
2023-05-17T07:30:07.378Z,101102.11
2023-05-17T07:32:34.484Z,101103.96
2023-05-17T07:35:03.225Z,101104.22
2023-05-17T07:37:30.317Z,101106.73
2023-05-17T07:39:57.387Z,101112.55
2023-05-17T07:42:24.748Z,101113.34
2023-05-17T07:44:51.870Z,101116.42
2023-05-17T07:47:19.061Z,101119.30
2023-05-17T07:49:46.232Z,101123.14
2023-05-17T07:52:13.646Z,101127.38
2023-05-17T07:54:40.778Z,101129.82
2023-05-17T07:57:07.838Z,101134.92
2023-05-17T07:59:34.973Z,101134.41
2023-05-17T08:02:02.097Z,101138.82
2023-05-17T08:04:29.215Z,101131.80
2023-05-17T08:06:56.344Z,101129.69
2023-05-17T08:09:23.480Z,101123.15
2023-05-17T08:11:50.585Z,101126.34
2023-05-17T08:14:18.285Z,101127.24
2023-05-17T08:16:47.383Z,101134.95
2023-05-17T08:19:16.211Z,101137.88
2023-05-17T08:21:44.045Z,101128.36
2023-05-17T08:24:12.000Z,101123.27
2023-05-17T08:26:39.116Z,101124.77
2023-05-17T08:29:06.922Z,101123.07
2023-05-17T08:31:35.340Z,101123.23
2023-05-17T08:34:03.024Z,101133.31
2023-05-17T08:36:30.103Z,101126.15
2023-05-17T08:38:57.254Z,101133.15
2023-05-17T08:41:24.828Z,101133.36
2023-05-17T08:43:52.370Z,101136.77
2023-05-17T08:46:23.068Z,101135.18
2023-05-17T08:48:52.322Z,101137.77
2023-05-17T08:51:23.516Z,101139.17
2023-05-17T08:53:50.920Z,101140.45
2023-05-17T08:56:19.790Z,101145.12
2023-05-17T08:58:56.895Z,101142.35
2023-05-17T09:01:26.875Z,101145.71
2023-05-17T09:03:55.453Z,101150.28
2023-05-17T09:06:24.182Z,101155.33
2023-05-17T09:08:58.683Z,101162.56
2023-05-17T09:11:31.012Z,101165.00
2023-05-17T09:14:02.623Z,101158.61
2023-05-17T09:16:30.780Z,101158.13
2023-05-17T09:18:58.871Z,101160.84
2023-05-17T09:21:28.060Z,101159.89
2023-05-17T09:26:26.351Z,101169.39
2023-05-17T09:28:53.807Z,101173.23
2023-05-17T09:31:21.123Z,101174.48
2023-05-17T09:33:50.759Z,101173.42
2023-05-17T09:36:21.420Z,101174.96
2023-05-17T09:38:59.689Z,101175.13
2023-05-17T09:41:31.024Z,101169.33
2023-05-17T09:44:00.366Z,101176.66
2023-05-17T09:46:28.633Z,101178.05
2023-05-17T09:48:56.940Z,101185.44
2023-05-17T09:51:39.844Z,101184.85
2023-05-17T09:54:07.916Z,101185.91
2023-05-17T09:56:35.980Z,101182.73
2023-05-17T09:59:10.936Z,101180.97
2023-05-17T10:01:41.968Z,101172.09
2023-05-17T10:04:11.088Z,101175.23
2023-05-17T10:09:14.625Z,101182.12
2023-05-17T10:11:46.818Z,101185.48
2023-05-17T10:14:35.325Z,101187.96
2023-05-17T10:17:03.543Z,101189.61
2023-05-17T10:19:31.669Z,101189.08
2023-05-17T10:22:11.037Z,101192.48
2023-05-17T10:24:48.329Z,101190.55
2023-05-17T10:27:16.285Z,101195.91
2023-05-17T10:29:45.892Z,101195.44
2023-05-17T10:32:15.111Z,101200.10
2023-05-17T10:34:42.138Z,101196.96
2023-05-17T10:37:10.451Z,101195.77
2023-05-17T10:39:39.100Z,101198.18
2023-05-17T10:42:14.899Z,101197.32
2023-05-17T10:44:43.478Z,101189.84
2023-05-17T10:47:11.971Z,101191.91
2023-05-17T10:49:43.296Z,101198.39
2023-05-17T10:52:18.638Z,101197.06
2023-05-17T10:54:50.093Z,101192.92
2023-05-17T10:57:22.788Z,101191.02
2023-05-17T11:00:01.260Z,101184.98
2023-05-17T11:02:29.451Z,101175.44
2023-05-17T11:04:58.075Z,101174.00
2023-05-17T11:07:34.096Z,101178.61
2023-05-17T11:10:03.913Z,101180.89
2023-05-17T11:12:55.497Z,101178.88
2023-05-17T11:15:26.838Z,101177.73
2023-05-17T11:17:54.659Z,101175.73
2023-05-17T11:20:28.453Z,101169.98
2023-05-17T11:23:06.353Z,101163.55
2023-05-17T11:25:40.987Z,101168.86
2023-05-17T11:28:09.676Z,101167.85
2023-05-17T11:30:43.683Z,101167.91
2023-05-17T11:33:33.095Z,101168.33
2023-05-17T11:36:07.235Z,101172.70
2023-05-17T11:38:34.924Z,101175.73
2023-05-17T11:43:53.507Z,101174.73
2023-05-17T11:46:24.320Z,101175.03
2023-05-17T11:48:53.192Z,101174.29
2023-05-17T11:51:24.414Z,101175.52
2023-05-17T11:53:55.796Z,101177.48
2023-05-17T11:56:41.920Z,101161.32
2023-05-17T11:59:11.226Z,101158.61
2023-05-17T12:01:46.479Z,101155.52
2023-05-17T12:04:15.412Z,101147.65
2023-05-17T12:06:42.837Z,101145.57
2023-05-17T12:09:11.453Z,101147.33
2023-05-17T12:11:40.574Z,101148.30
2023-05-17T12:14:08.203Z,101154.66
2023-05-17T12:16:43.050Z,101155.79
2023-05-17T12:19:30.148Z,101153.19
2023-05-17T12:22:14.941Z,101156.91
2023-05-17T12:24:43.574Z,101155.42
2023-05-17T12:27:11.551Z,101156.33
2023-05-17T12:29:39.649Z,101161.59
2023-05-17T12:32:10.066Z,101163.23
2023-05-17T12:34:37.558Z,101167.70
2023-05-17T12:37:10.671Z,101173.08
2023-05-17T12:39:38.423Z,101177.21
2023-05-17T12:42:06.174Z,101176.54
2023-05-17T12:44:33.635Z,101172.23
2023-05-17T12:47:03.239Z,101171.48
2023-05-17T12:49:30.390Z,101175.94
2023-05-17T12:52:04.677Z,101175.32
2023-05-17T12:54:31.803Z,101172.83
2023-05-17T12:57:01.462Z,101169.09
2023-05-17T12:59:29.446Z,101167.59
2023-05-17T13:01:58.058Z,101169.88
2023-05-17T13:04:37.746Z,101172.02
2023-05-17T13:07:05.941Z,101169.63
2023-05-17T13:09:34.642Z,101169.78
2023-05-17T13:12:05.820Z,101157.75
2023-05-17T13:14:52.003Z,101163.81
2023-05-17T13:17:24.621Z,101151.16
2023-05-17T13:19:51.870Z,101151.73
2023-05-17T13:22:19.202Z,101143.58
2023-05-17T13:24:46.413Z,101140.11
2023-05-17T13:27:13.416Z,101134.68
2023-05-17T13:29:42.836Z,101134.78
2023-05-17T13:32:14.068Z,101133.29
2023-05-17T13:34:41.474Z,101134.79
2023-05-17T13:37:11.915Z,101134.73
2023-05-17T13:39:39.673Z,101135.73
2023-05-17T13:42:07.117Z,101133.02
2023-05-17T13:44:34.253Z,101133.89
2023-05-17T13:47:01.406Z,101135.75
2023-05-17T13:49:29.068Z,101128.11
2023-05-17T13:51:57.043Z,101130.88
2023-05-17T13:54:24.290Z,101131.04
2023-05-17T13:56:51.469Z,101126.78
2023-05-17T13:59:18.768Z,101125.61
2023-05-17T14:01:46.152Z,101118.58
2023-05-17T14:04:13.599Z,101115.83
2023-05-17T14:06:42.480Z,101111.90
2023-05-17T14:09:10.865Z,101114.94
2023-05-17T14:11:38.061Z,101121.52
2023-05-17T14:14:05.176Z,101116.36
2023-05-17T14:16:32.264Z,101122.20
2023-05-17T14:19:03.693Z,101120.29
2023-05-17T14:21:31.760Z,101118.84
2023-05-17T14:23:58.871Z,101121.82
2023-05-17T14:26:26.449Z,101116.89
2023-05-17T14:28:53.953Z,101121.56
2023-05-17T14:31:21.366Z,101118.70
2023-05-17T14:33:49.062Z,101118.54
2023-05-17T14:36:16.275Z,101118.70
2023-05-17T14:38:43.352Z,101119.23
2023-05-17T14:41:10.317Z,101120.35
2023-05-17T14:43:37.631Z,101120.77
2023-05-17T14:46:04.785Z,101117.80
2023-05-17T14:48:33.128Z,101117.01
2023-05-17T14:51:00.307Z,101119.66
2023-05-17T14:53:29.568Z,101120.04
2023-05-17T14:56:00.003Z,101121.00
2023-05-17T14:58:28.270Z,101125.09
2023-05-17T15:01:04.717Z,101121.21
2023-05-17T15:03:33.594Z,101120.71
2023-05-17T15:06:02.142Z,101118.85
2023-05-17T15:08:31.355Z,101120.14
2023-05-17T15:10:59.118Z,101124.34
2023-05-17T15:13:26.884Z,101125.56
2023-05-17T15:15:54.228Z,101127.84
2023-05-17T15:18:22.412Z,101121.89
2023-05-17T15:20:49.546Z,101126.69
2023-05-17T15:23:16.824Z,101127.21
2023-05-17T15:25:43.850Z,101130.30
2023-05-17T15:28:10.949Z,101130.45
2023-05-17T15:30:38.053Z,101129.02
2023-05-17T15:33:05.375Z,101127.43
2023-05-17T15:35:32.544Z,101117.65
2023-05-17T15:38:00.020Z,101112.07
2023-05-17T15:40:27.765Z,101119.71
2023-05-17T15:42:55.143Z,101112.15
2023-05-17T15:45:22.700Z,101113.98
2023-05-17T15:47:49.927Z,101110.23
2023-05-17T15:50:17.298Z,101108.23
2023-05-17T15:52:44.340Z,101108.91
2023-05-17T15:55:11.486Z,101110.77
2023-05-17T15:57:38.432Z,101108.59
2023-05-17T16:00:07.195Z,101109.95
2023-05-17T16:02:35.252Z,101106.70
2023-05-17T16:05:04.034Z,101108.45
2023-05-17T16:07:31.498Z,101106.55
2023-05-17T16:09:58.601Z,101105.48
2023-05-17T16:12:25.894Z,101105.39
2023-05-17T16:14:54.531Z,101105.34
2023-05-17T16:17:25.787Z,101105.13
2023-05-17T16:19:55.783Z,101104.76
2023-05-17T16:22:26.630Z,101105.59
2023-05-17T16:24:54.807Z,101102.30
2023-05-17T16:27:25.594Z,101103.58
2023-05-17T16:29:53.302Z,101105.39
2023-05-17T16:32:20.853Z,101108.15
2023-05-17T16:34:48.875Z,101104.48
2023-05-17T16:37:16.149Z,101107.88
2023-05-17T16:39:43.872Z,101104.16
2023-05-17T16:42:13.660Z,101101.23
2023-05-17T16:44:41.010Z,101103.95
2023-05-17T16:47:08.928Z,101104.20
2023-05-17T16:49:37.359Z,101102.88
2023-05-17T16:52:06.752Z,101102.92
2023-05-17T16:54:35.755Z,101100.89
2023-05-17T16:57:06.591Z,101097.40
2023-05-17T16:59:35.377Z,101107.28
2023-05-17T17:02:02.631Z,101106.11
2023-05-17T17:04:29.915Z,101109.67
2023-05-17T17:06:59.218Z,101111.70
2023-05-17T17:09:27.770Z,101113.77
2023-05-17T17:11:56.003Z,101115.78
2023-05-17T17:14:27.077Z,101118.51
2023-05-17T17:16:57.311Z,101117.59
2023-05-17T17:19:24.820Z,101115.36
2023-05-17T17:21:55.497Z,101118.70
2023-05-17T17:24:23.160Z,101119.20
2023-05-17T17:26:51.356Z,101119.34
2023-05-17T17:29:20.340Z,101121.02
2023-05-17T17:31:52.145Z,101122.15
2023-05-17T17:34:19.843Z,101118.21
2023-05-17T17:36:46.930Z,101114.81
2023-05-17T17:39:14.900Z,101119.98
2023-05-17T17:41:42.865Z,101120.55
2023-05-17T17:44:09.950Z,101122.00
2023-05-17T17:46:37.200Z,101130.23
2023-05-17T17:49:04.286Z,101135.66
2023-05-17T17:51:31.701Z,101136.78
2023-05-17T17:53:58.686Z,101137.79
2023-05-17T17:56:26.785Z,101134.60
2023-05-17T17:58:56.458Z,101134.24
2023-05-17T18:01:27.466Z,101130.95
2023-05-17T18:03:59.332Z,101124.95
2023-05-17T18:06:28.390Z,101123.95
2023-05-17T18:08:55.944Z,101128.80
2023-05-17T18:11:23.980Z,101125.67
2023-05-17T18:13:53.603Z,101116.33
2023-05-17T18:16:21.105Z,101115.38
2023-05-17T18:18:49.347Z,101112.98
2023-05-17T18:21:21.964Z,101113.38
2023-05-17T18:23:50.327Z,101117.85
2023-05-17T18:26:17.447Z,101123.22
2023-05-17T18:28:47.604Z,101122.11
2023-05-17T18:31:15.451Z,101121.16
2023-05-17T18:33:42.886Z,101127.95
2023-05-17T18:36:10.157Z,101126.88
2023-05-17T18:38:40.701Z,101127.73
2023-05-17T18:41:08.067Z,101127.16
2023-05-17T18:43:35.577Z,101134.77
2023-05-17T18:46:03.184Z,101137.66
2023-05-17T18:48:31.204Z,101135.13
2023-05-17T18:51:00.225Z,101136.84
2023-05-17T18:53:29.924Z,101136.77
2023-05-17T18:56:03.033Z,101140.55
2023-05-17T18:58:33.857Z,101144.48
2023-05-17T19:01:02.895Z,101142.58
2023-05-17T19:03:33.465Z,101143.70
2023-05-17T19:06:00.618Z,101145.73
2023-05-17T19:08:28.998Z,101141.55
2023-05-17T19:10:56.148Z,101139.38
2023-05-17T19:13:23.182Z,101137.19
2023-05-17T19:15:50.335Z,101142.13
2023-05-17T19:18:17.422Z,101152.65
2023-05-17T19:20:44.853Z,101159.69
2023-05-17T19:23:11.956Z,101162.29
2023-05-17T19:25:39.044Z,101168.66
2023-05-17T19:28:06.070Z,101170.95
2023-05-17T19:30:33.407Z,101174.84
2023-05-17T19:33:01.072Z,101179.40
2023-05-17T19:35:28.268Z,101183.17
2023-05-17T19:37:57.473Z,101186.04
2023-05-17T19:40:25.222Z,101189.77
2023-05-17T19:42:52.280Z,101198.00
2023-05-17T19:45:19.358Z,101201.83
2023-05-17T19:47:46.886Z,101202.85
2023-05-17T19:50:14.097Z,101214.38
2023-05-17T19:52:41.307Z,101215.80
2023-05-17T19:55:08.548Z,101217.18
2023-05-17T19:57:36.111Z,101211.33
2023-05-17T20:00:04.441Z,101204.76
2023-05-17T20:02:31.501Z,101205.89
2023-05-17T20:05:02.262Z,101204.02
2023-05-17T20:07:30.766Z,101206.74
2023-05-17T20:09:57.814Z,101208.81
2023-05-17T20:12:26.166Z,101209.23
2023-05-17T20:14:54.258Z,101213.11
2023-05-17T20:17:21.407Z,101219.60
2023-05-17T20:19:48.674Z,101224.33
2023-05-17T20:22:16.333Z,101231.96
2023-05-17T20:24:44.828Z,101237.12
2023-05-17T20:27:13.195Z,101243.88
2023-05-17T20:29:41.105Z,101239.71
2023-05-17T20:32:09.309Z,101238.17
2023-05-17T20:34:36.799Z,101239.06
2023-05-17T20:37:03.998Z,101246.77
2023-05-17T20:39:31.566Z,101245.04
2023-05-17T20:42:01.489Z,101249.38
2023-05-17T20:44:28.574Z,101253.91
2023-05-17T20:46:57.266Z,101249.92
2023-05-17T20:49:24.512Z,101243.71
2023-05-17T20:51:51.579Z,101243.17
2023-05-17T20:54:18.610Z,101249.87
2023-05-17T20:56:45.772Z,101255.64
2023-05-17T20:59:12.880Z,101241.29
2023-05-17T21:01:40.078Z,101220.48
2023-05-17T21:04:07.327Z,101222.14
2023-05-17T21:06:34.780Z,101228.45
2023-05-17T21:09:02.712Z,101236.20
2023-05-17T21:11:30.114Z,101244.60
2023-05-17T21:14:00.370Z,101243.33
2023-05-17T21:16:27.788Z,101236.89
2023-05-17T21:18:54.961Z,101229.72
2023-05-17T21:21:22.070Z,101235.73
2023-05-17T21:23:49.241Z,101239.83
2023-05-17T21:26:16.307Z,101236.52
2023-05-17T21:28:43.647Z,101223.84
2023-05-17T21:31:10.826Z,101225.69
2023-05-17T21:33:37.953Z,101229.14
2023-05-17T21:36:05.613Z,101235.14
2023-05-17T21:38:32.611Z,101242.05
2023-05-17T21:40:59.586Z,101248.20
2023-05-17T21:43:26.713Z,101251.66
2023-05-17T21:45:53.955Z,101249.17
2023-05-17T21:48:21.140Z,101247.33
2023-05-17T21:50:49.863Z,101246.27
2023-05-17T21:53:16.822Z,101247.11
2023-05-17T21:56:00.798Z,101247.75
2023-05-17T21:58:30.620Z,101245.25
2023-05-17T22:00:58.321Z,101241.06
2023-05-17T22:03:25.585Z,101237.02
2023-05-17T22:05:52.769Z,101237.27
2023-05-17T22:08:19.855Z,101239.86
2023-05-17T22:10:46.894Z,101244.12
2023-05-17T22:13:16.097Z,101245.48
2023-05-17T22:15:43.121Z,101242.94
2023-05-17T22:18:12.572Z,101238.96
2023-05-17T22:20:39.747Z,101240.71
2023-05-17T22:23:06.693Z,101242.14
2023-05-17T22:25:33.719Z,101233.15
2023-05-17T22:28:00.799Z,101239.27
2023-05-17T22:30:27.859Z,101240.98
2023-05-17T22:32:57.417Z,101248.20
2023-05-17T22:35:24.854Z,101249.32
2023-05-17T22:37:53.589Z,101247.84
2023-05-17T22:40:21.401Z,101250.65
2023-05-17T22:42:48.411Z,101251.39
2023-05-17T22:45:15.450Z,101251.77
2023-05-17T22:47:47.105Z,101252.30
2023-05-17T22:50:15.930Z,101251.02
2023-05-17T22:52:43.558Z,101246.56
2023-05-17T22:55:11.212Z,101250.74
2023-05-17T22:57:38.748Z,101250.41
2023-05-17T23:00:08.980Z,101252.06
2023-05-17T23:02:36.388Z,101256.48
2023-05-17T23:05:03.615Z,101258.66
2023-05-17T23:07:38.390Z,101261.58
2023-05-17T23:10:07.224Z,101258.55
2023-05-17T23:12:36.111Z,101255.91
2023-05-17T23:15:06.982Z,101255.27
2023-05-17T23:17:36.517Z,101253.36
2023-05-17T23:20:10.677Z,101255.48
2023-05-17T23:22:38.065Z,101254.45
2023-05-17T23:25:06.365Z,101253.14
2023-05-17T23:27:35.561Z,101253.77
2023-05-17T23:30:04.838Z,101248.46
2023-05-17T23:32:34.976Z,101240.86
2023-05-17T23:35:04.003Z,101243.89
2023-05-17T23:37:32.303Z,101240.38
2023-05-17T23:40:00.291Z,101230.55
2023-05-17T23:42:29.272Z,101224.01
2023-05-17T23:44:56.323Z,101219.91
2023-05-17T23:47:23.645Z,101220.40
2023-05-17T23:49:51.209Z,101219.38
2023-05-17T23:52:19.191Z,101221.89
2023-05-17T23:54:47.681Z,101222.48
2023-05-17T23:57:14.771Z,101222.64
2023-05-17T23:59:41.887Z,101221.41
